This is the latest recevied weather packets stored in our database for station/object K7FRY. If no packets are shown the sender has not sent any weather packets the latest 10 day(s).
| Time | Temp. | Humidity | Pressure | Rain* | Wind** | Luminosity | Snow |
|---|---|---|---|---|---|---|---|
| 1778137660 | 16.11° C | 42% | 1016.7 hPa | 0 mm | - | 0 W/m² | - |
| 1778137357 | 17.78° C | 38% | 1016.8 hPa | 0 mm | - | 0 W/m² | - |
| 1778137053 | 17.78° C | 35% | 1016.8 hPa | 0 mm | - | 0 W/m² | - |
| 1778136750 | 17.78° C | 35% | 1016.7 hPa | 0 mm | - | 0 W/m² | - |
| 1778136447 | 17.78° C | 36% | 1016.9 hPa | 0 mm | - | 0 W/m² | - |
| 1778136147 | 17.78° C | 36% | 1016.9 hPa | 0 mm | - | 0 W/m² | - |
| 1778135843 | 17.22° C | 36% | 1017.1 hPa | 0 mm | - | 0 W/m² | - |
| 1778135540 | 16.67° C | 37% | 1016.9 hPa | 0 mm | - | 0 W/m² | - |
| 1778135237 | 16.67° C | 38% | 1017.1 hPa | 0 mm | - | 0 W/m² | - |
| 1778134934 | 16.11° C | 41% | 1017.1 hPa | 0 mm | - | 0 W/m² | - |
| 1778134632 | 16.11° C | 41% | 1017.1 hPa | 0 mm | - | 0 W/m² | - |
| 1778134330 | 16.11° C | 41% | 1017.1 hPa | 0 mm | - | 0 W/m² | - |
| 1778134028 | 16.67° C | 41% | 1017.1 hPa | 0 mm | - | 0 W/m² | - |
| 1778133724 | 16.67° C | 40% | 1016.7 hPa | 0 mm | - | 0 W/m² | - |
| 1778133420 | 16.67° C | 41% | 1017.3 hPa | 0 mm | - | 0 W/m² | - |
| 1778133116 | 16.11° C | 41% | 1016.9 hPa | 0 mm | - | 0 W/m² | - |
| 1778132812 | 16.11° C | 42% | 1016.9 hPa | 0 mm | - | 0 W/m² | - |
| 1778132509 | 16.67° C | 41% | 1017.1 hPa | 0 mm | - | 0 W/m² | - |
| 1778132207 | 16.67° C | 40% | 1016.7 hPa | 0 mm | - | 0 W/m² | - |
| 1778131905 | 16.67° C | 40% | 1016.8 hPa | 0 mm | - | 0 W/m² | - |
| 1778131603 | 16.11° C | 42% | 1016.7 hPa | 0 mm | - | 0 W/m² | - |
| 1778131299 | 17.22° C | 41% | 1016.8 hPa | 0 mm | - | 0 W/m² | - |
| 1778130997 | 16.67° C | 39% | 1016.8 hPa | 0 mm | - | 0 W/m² | - |
| 1778130693 | 16.67° C | 42% | 1016.9 hPa | 0 mm | - | 0 W/m² | - |
| 1778130390 | 17.78° C | 40% | 1016.8 hPa | 0 mm | - | 0 W/m² | - |
* Rain latest hour (hover to see other rain measurements)
** Current wind speed in m/s (hover to see current wind gust speed)